Terminal Aerodrome Forecast
Issued by NWS Cleveland, OH

Home | Current Version | Previous Version | Graphics & Text | Print | Product List | Glossary On
Versions: 1 2 3 4 5 6 7 8 9 10 11 12 13 14 15 16 17 18 19 20
345
FTUS41 KCLE 032332
TAFERI
TAF
KERI 032332Z 0400/0424 28006KT P6SM BKN020 OVC035
     FM040900 VRB03KT P6SM BKN035
     FM041900 14008KT P6SM SCT020 OVC150=

USA.gov is the U.S. government's official web portal to all federal, state and local government web resources and services.